Time;durP1;ratioP1;P1;durP2;ratioP2;P2;SDS_P1;SDS_P2;PMS_P1;PMS_P2;Temp;Humidity;BMP_temperature;BMP_pressure;BME280_temperature;BME280_humidity;BME280_pressure;Samples;Min_cycle;Max_cycle;Signal;HPM_P1;HPM_P2
2022/06/10 00:00:20;;;;;;;10.07;6.77;;;;;;;13.38;91.36;102024.22;5029967;28;20210;-72
2022/06/10 00:02:46;;;;;;;9.90;6.67;;;;;;;13.36;91.05;102029.34;5030521;28;20199;-72
2022/06/10 00:05:18;;;;;;;11.67;6.83;;;;;;;13.34;91.04;102024.94;5030142;28;20236;-73
2022/06/10 00:07:44;;;;;;;11.47;7.70;;;;;;;13.22;91.06;102017.78;5030311;28;20703;-72
2022/06/10 00:10:12;;;;;;;11.73;7.37;;;;;;;13.21;90.73;102025.47;5030051;28;20312;-72
2022/06/10 00:12:38;;;;;;;11.80;7.47;;;;;;;13.10;90.87;102014.88;5029244;28;20249;-72
2022/06/10 00:15:05;;;;;;;15.37;7.27;;;;;;;13.03;90.55;102019.81;5030273;28;20214;-72
2022/06/10 00:17:32;;;;;;;13.90;8.43;;;;;;;13.08;91.04;102021.66;5029749;28;20178;-73
2022/06/10 00:19:57;;;;;;;12.83;8.00;;;;;;;13.02;91.61;102013.78;5029832;28;20198;-73
2022/06/10 00:22:23;;;;;;;14.23;8.03;;;;;;;13.00;91.36;102027.44;5011731;28;20930;-73
2022/06/10 00:24:51;;;;;;;13.70;7.63;;;;;;;12.94;91.07;102025.50;5029179;28;20341;-73
2022/06/10 00:27:18;;;;;;;10.53;7.27;;;;;;;12.88;90.74;102026.22;5029501;28;20198;-73
2022/06/10 00:29:43;;;;;;;8.30;6.27;;;;;;;12.75;90.44;102039.53;5029436;28;20210;-72
2022/06/10 00:32:09;;;;;;;8.70;5.83;;;;;;;12.69;89.96;102039.38;5029269;28;20234;-73
2022/06/10 00:34:35;;;;;;;10.80;6.60;;;;;;;12.71;89.78;102050.56;5029270;28;20210;-73
2022/06/10 00:37:05;;;;;;;9.90;6.63;;;;;;;12.61;89.54;102047.66;5029639;28;20186;-73
2022/06/10 00:39:31;;;;;;;8.43;6.50;;;;;;;12.60;89.81;102038.22;5028743;28;20213;-73
2022/06/10 00:41:58;;;;;;;9.40;6.03;;;;;;;12.53;89.71;102042.28;5029386;28;20186;-73
2022/06/10 00:44:32;;;;;;;8.33;6.53;;;;;;;12.44;90.56;102044.56;5029089;28;20201;-73
2022/06/10 00:46:59;;;;;;;10.83;6.20;;;;;;;12.39;90.66;102043.56;5029585;28;20213;-73
2022/06/10 00:49:24;;;;;;;11.90;6.83;;;;;;;12.34;90.54;102051.94;5029206;28;20205;-73
2022/06/10 00:51:54;;;;;;;10.00;6.07;;;;;;;12.24;90.41;102043.09;5028435;28;20563;-73
2022/06/10 00:54:30;;;;;;;9.33;6.67;;;;;;;12.20;90.27;102048.94;5029165;28;20305;-73
2022/06/10 00:57:09;;;;;;;11.33;6.20;;;;;;;12.18;90.17;102055.75;5028952;28;20190;-72
2022/06/10 00:59:40;;;;;;;8.50;6.40;;;;;;;12.14;89.96;102053.91;5029054;28;20206;-72
2022/06/10 01:02:14;;;;;;;7.20;6.17;;;;;;;12.10;90.08;102056.28;5027740;28;20278;-73
2022/06/10 01:04:42;;;;;;;12.03;6.27;;;;;;;12.06;89.86;102057.00;5029344;28;20191;-72
2022/06/10 01:07:10;;;;;;;8.90;6.23;;;;;;;12.07;89.76;102059.63;5029011;28;20213;-72
2022/06/10 01:09:38;;;;;;;8.90;6.40;;;;;;;11.94;90.54;102056.63;5011547;28;20272;-73
2022/06/10 01:12:47;;;;;;;9.20;6.40;;;;;;;11.98;90.01;102066.19;5009690;28;20289;-73
2022/06/10 01:15:30;;;;;;;11.70;6.63;;;;;;;11.93;90.23;102068.56;5007356;28;20216;-73
2022/06/10 01:18:26;;;;;;;10.37;6.03;;;;;;;11.84;90.21;102070.84;5029074;28;20190;-73
2022/06/10 01:21:16;;;;;;;10.43;6.10;;;;;;;11.88;90.03;102069.22;5029314;28;20550;-73
2022/06/10 01:24:00;;;;;;;7.13;6.10;;;;;;;11.82;90.62;102063.91;5010969;28;20191;-73
2022/06/10 01:30:11;;;;;;;8.67;6.53;;;;;;;11.73;91.50;102064.47;5028562;28;20593;-72
2022/06/10 01:32:57;;;;;;;8.57;6.53;;;;;;;11.68;91.36;102071.16;5000031;28;20246;-73
2022/06/10 01:35:41;;;;;;;10.37;6.77;;;;;;;11.61;91.56;102076.00;5008887;28;20198;-73
2022/06/10 01:38:17;;;;;;;11.30;6.47;;;;;;;11.59;90.74;102072.47;5015600;28;20552;-73
2022/06/10 01:40:50;;;;;;;9.43;6.23;;;;;;;11.55;90.98;102070.63;5028536;28;20220;-73
2022/06/10 01:43:24;;;;;;;11.93;7.13;;;;;;;11.58;91.63;102073.28;5029021;28;20740;-73
2022/06/10 01:45:56;;;;;;;10.43;7.53;;;;;;;11.50;92.05;102075.59;5010861;28;20185;-73
2022/06/10 01:48:48;;;;;;;10.00;6.43;;;;;;;11.48;91.67;102084.06;5029068;28;20648;-73
2022/06/10 01:51:53;;;;;;;9.67;6.57;;;;;;;11.51;91.47;102082.47;5028506;28;20189;-73
2022/06/10 01:54:40;;;;;;;9.00;6.47;;;;;;;11.40;90.21;102083.78;5010071;28;20194;-73
2022/06/10 01:57:13;;;;;;;9.43;5.93;;;;;;;11.29;89.94;102089.34;5028510;28;20197;-73
2022/06/10 01:59:48;;;;;;;8.20;5.97;;;;;;;11.14;90.25;102087.09;5028786;28;20952;-73
2022/06/10 02:02:24;;;;;;;10.77;5.87;;;;;;;11.16;90.63;102089.72;5028251;28;20536;-73
2022/06/10 02:04:55;;;;;;;6.50;5.63;;;;;;;11.13;90.93;102094.72;5031283;28;20212;-73
2022/06/10 02:07:44;;;;;;;7.90;5.70;;;;;;;11.07;90.42;102097.91;5032199;28;20207;-73
2022/06/10 02:10:15;;;;;;;9.07;4.93;;;;;;;11.00;90.48;102098.53;5031973;28;20195;-73
2022/06/10 02:12:45;;;;;;;7.60;4.73;;;;;;;11.03;90.21;102100.31;5032140;28;20191;-73
2022/06/10 02:15:31;;;;;;;6.27;5.53;;;;;;;11.04;90.32;102097.81;5031979;28;20179;-73
2022/06/10 02:18:14;;;;;;;7.43;5.87;;;;;;;10.88;90.72;102100.59;5032377;28;20189;-72
2022/06/10 02:20:53;;;;;;;8.30;5.17;;;;;;;10.90;90.20;102104.13;5013883;28;20583;-73
2022/06/10 02:23:24;;;;;;;7.10;5.20;;;;;;;10.88;90.66;102115.13;5032222;28;20190;-72
2022/06/10 02:25:53;;;;;;;10.50;5.60;;;;;;;10.83;90.42;102111.50;5031765;28;20193;-73
2022/06/10 02:28:27;;;;;;;6.87;4.80;;;;;;;10.78;90.48;102111.31;5014455;28;20221;-73
2022/06/10 02:31:11;;;;;;;7.80;4.77;;;;;;;10.78;90.77;102113.88;5014119;28;20194;-73
2022/06/10 02:33:37;;;;;;;7.00;5.13;;;;;;;10.77;90.42;102116.38;5031855;28;20217;-72
2022/06/10 02:36:16;;;;;;;8.00;5.57;;;;;;;10.70;90.55;102111.84;5031456;28;20566;-72
2022/06/10 02:38:54;;;;;;;7.03;5.50;;;;;;;10.67;90.52;102114.28;5031669;28;20194;-72
2022/06/10 02:41:49;;;;;;;8.57;4.83;;;;;;;10.67;90.17;102115.16;5031260;28;20281;-72
2022/06/10 02:45:09;;;;;;;6.23;5.27;;;;;;;10.66;90.94;102115.09;5024845;28;20209;-73
2022/06/10 02:47:55;;;;;;;9.10;5.63;;;;;;;10.64;90.59;102117.59;4963318;28;20232;-73
2022/06/10 02:50:21;;;;;;;7.00;5.53;;;;;;;10.60;91.49;102120.00;5002818;28;20296;-73
2022/06/10 02:52:47;;;;;;;10.33;5.87;;;;;;;10.54;91.23;102118.06;5013358;28;20190;-73
2022/06/10 02:55:25;;;;;;;7.93;5.70;;;;;;;10.56;91.79;102129.22;5031272;28;20668;-73
2022/06/10 03:04:15;;;;;;;8.37;5.47;;;;;;;10.47;91.08;102128.00;5030839;28;20210;-73
2022/06/10 03:06:48;;;;;;;6.93;5.10;;;;;;;10.36;91.22;102131.78;4990697;28;20316;-73
2022/06/10 03:09:32;;;;;;;7.23;5.60;;;;;;;10.37;92.24;102126.72;5027354;28;20215;-73
2022/06/10 03:12:15;;;;;;;7.60;4.70;;;;;;;10.32;92.00;102132.50;5017022;28;20213;-73
2022/06/10 03:14:56;;;;;;;7.87;5.47;;;;;;;10.32;91.73;102140.19;5030973;28;20185;-72
2022/06/10 03:17:46;;;;;;;7.33;4.97;;;;;;;10.29;91.21;102146.06;5030503;28;20251;-73
2022/06/10 03:20:34;;;;;;;9.57;5.60;;;;;;;10.42;91.79;102139.72;5030822;28;20582;-73
2022/06/10 03:23:22;;;;;;;7.90;7.13;;;;;;;10.57;93.38;102148.03;5017382;28;20242;-73
2022/06/10 03:26:13;;;;;;;10.33;7.97;;;;;;;10.64;94.86;102147.47;5013108;28;20206;-73
2022/06/10 03:29:02;;;;;;;13.87;8.57;;;;;;;10.64;94.54;102145.78;5030728;28;20202;-73
2022/06/10 03:31:51;;;;;;;9.10;7.57;;;;;;;10.61;95.61;102149.91;5012405;28;20197;-73
2022/06/10 03:34:23;;;;;;;8.97;8.03;;;;;;;10.63;95.43;102149.16;5030349;28;20198;-73
2022/06/10 03:36:51;;;;;;;8.73;7.60;;;;;;;10.54;95.60;102145.34;5030784;28;20214;-73
2022/06/10 03:39:20;;;;;;;9.67;7.37;;;;;;;10.59;95.24;102152.41;5012479;28;20306;-73
2022/06/10 03:42:04;;;;;;;11.17;8.33;;;;;;;10.64;95.42;102148.34;5030536;28;20190;-73
2022/06/10 03:44:31;;;;;;;11.10;7.70;;;;;;;10.65;95.13;102149.22;5030370;28;20547;-73
2022/06/10 03:46:57;;;;;;;7.83;6.57;;;;;;;10.68;94.79;102151.88;5031023;28;20574;-73
2022/06/10 03:49:33;;;;;;;10.23;7.17;;;;;;;10.74;95.18;102157.28;5030043;28;20202;-72
2022/06/10 03:52:00;;;;;;;11.33;7.80;;;;;;;10.80;95.37;102157.50;5030610;28;20536;-73
2022/06/10 03:54:25;;;;;;;9.00;7.90;;;;;;;10.82;95.17;102159.31;5012027;28;20190;-73
2022/06/10 03:56:53;;;;;;;9.73;7.63;;;;;;;10.87;95.40;102154.38;5030153;28;20226;-73
2022/06/10 03:59:20;;;;;;;10.73;7.37;;;;;;;10.85;95.56;102156.88;5029915;28;20213;-73
2022/06/10 04:01:45;;;;;;;8.03;7.23;;;;;;;10.87;95.74;102154.38;5030262;28;20285;-73
2022/06/10 04:04:11;;;;;;;9.10;6.93;;;;;;;10.87;95.48;102162.94;5030487;28;20273;-73
2022/06/10 04:06:37;;;;;;;7.43;6.63;;;;;;;10.89;95.59;102163.88;5029946;28;20214;-74
2022/06/10 04:09:02;;;;;;;8.13;7.37;;;;;;;10.89;95.72;102165.56;5030321;28;20286;-73
2022/06/10 04:11:28;;;;;;;7.57;6.87;;;;;;;10.89;96.11;102166.44;5029793;28;20175;-73
2022/06/10 04:13:53;;;;;;;8.23;6.67;;;;;;;10.95;95.39;102171.78;5030319;28;20615;-73
2022/06/10 04:16:19;;;;;;;8.47;6.80;;;;;;;10.97;95.60;102170.16;4997634;28;20191;-73
2022/06/10 04:18:44;;;;;;;7.53;6.80;;;;;;;10.94;95.70;102171.72;5010385;28;20238;-73
2022/06/10 04:21:10;;;;;;;7.53;6.80;;;;;;;10.97;95.66;102169.31;5010172;28;20294;-72
2022/06/10 04:23:35;;;;;;;7.03;6.33;;;;;;;11.02;95.56;102178.03;5009979;28;20202;-73
2022/06/10 04:26:01;;;;;;;7.90;6.63;;;;;;;11.09;95.28;102178.31;5010394;28;20264;-73
2022/06/10 04:28:27;;;;;;;6.77;6.07;;;;;;;11.15;95.38;102182.81;5009629;28;20199;-73
2022/06/10 04:30:52;;;;;;;7.77;6.83;;;;;;;11.17;95.35;102182.06;5010264;28;20737;-73
2022/06/10 04:33:19;;;;;;;10.37;7.27;;;;;;;11.24;95.73;102173.78;5009778;28;20275;-73
2022/06/10 04:35:48;;;;;;;7.97;7.00;;;;;;;11.32;95.69;102167.25;5010258;28;20214;-73
2022/06/10 04:38:18;;;;;;;10.77;8.10;;;;;;;11.43;95.56;102170.22;5009960;28;20649;-73
2022/06/10 04:40:44;;;;;;;9.63;8.63;;;;;;;11.50;95.50;102162.81;5009906;28;20210;-73
2022/06/10 04:43:10;;;;;;;8.63;7.63;;;;;;;11.60;95.37;102180.31;5010083;28;20626;-73
2022/06/10 04:45:44;;;;;;;11.63;9.13;;;;;;;11.69;95.42;102172.94;5009596;28;20282;-73
2022/06/10 04:48:13;;;;;;;9.60;8.33;;;;;;;11.81;95.62;102162.25;5010337;28;20222;-73
2022/06/10 04:50:40;;;;;;;12.70;9.00;;;;;;;11.88;95.28;102177.91;5009389;28;20211;-73
2022/06/10 04:53:06;;;;;;;10.13;8.40;;;;;;;11.97;95.19;102173.09;5026193;28;20244;-73
2022/06/10 04:55:32;;;;;;;10.50;7.60;;;;;;;12.11;94.80;102178.72;5029223;28;20293;-73
2022/06/10 04:57:57;;;;;;;10.37;8.03;;;;;;;12.19;94.51;102178.16;5029809;28;20652;-73
2022/06/10 05:00:29;;;;;;;9.43;8.03;;;;;;;12.28;94.25;102186.19;5029728;28;20223;-74
2022/06/10 05:02:55;;;;;;;11.30;8.40;;;;;;;12.40;94.57;102194.28;5011504;28;20198;-73
2022/06/10 05:05:21;;;;;;;13.27;8.50;;;;;;;12.50;94.44;102196.34;5029668;28;20197;-73
2022/06/10 05:07:47;;;;;;;13.30;8.83;;;;;;;12.61;94.03;102189.88;5029106;28;20222;-73
2022/06/10 05:10:13;;;;;;;12.30;9.23;;;;;;;12.73;94.01;102191.97;5029406;28;20256;-72
2022/06/10 05:12:39;;;;;;;13.47;9.37;;;;;;;12.81;93.93;102195.66;5028929;28;20189;-73
2022/06/10 05:15:04;;;;;;;11.17;8.47;;;;;;;12.90;93.69;102198.53;5029614;28;20704;-73
2022/06/10 05:17:30;;;;;;;12.13;8.07;;;;;;;13.01;93.02;102202.34;5029061;28;20609;-72
2022/06/10 05:19:55;;;;;;;9.27;7.97;;;;;;;12.99;92.81;102203.13;5011499;28;20213;-73
2022/06/10 05:22:21;;;;;;;9.00;7.90;;;;;;;13.08;92.77;102199.13;5029181;28;20229;-73
2022/06/10 05:24:46;;;;;;;11.83;8.27;;;;;;;13.32;92.48;102204.16;5029077;28;20281;-73
2022/06/10 05:27:12;;;;;;;10.57;7.83;;;;;;;13.38;92.67;102201.75;5030228;28;20229;-73
2022/06/10 05:29:38;;;;;;;12.07;7.77;;;;;;;13.58;92.11;102203.22;4996453;28;20202;-73
2022/06/10 05:32:04;;;;;;;8.90;8.00;;;;;;;13.67;92.17;102200.91;5029385;28;20186;-73
2022/06/10 05:34:44;;;;;;;9.57;8.10;;;;;;;13.82;91.62;102203.91;5029215;28;20222;-73
2022/06/10 05:37:17;;;;;;;11.53;7.97;;;;;;;13.95;91.41;102193.13;5029880;28;20249;-73
2022/06/10 05:39:42;;;;;;;11.77;7.67;;;;;;;14.17;90.61;102200.56;5013704;28;20206;-73
2022/06/10 05:42:09;;;;;;;13.03;7.93;;;;;;;14.30;90.18;102197.53;5032778;28;20229;-73
2022/06/10 05:44:50;;;;;;;11.07;7.57;;;;;;;14.40;89.49;102200.38;5033267;28;20186;-73
2022/06/10 05:47:21;;;;;;;10.40;6.67;;;;;;;14.66;89.41;102201.03;5014829;28;20289;-73
2022/06/10 05:49:49;;;;;;;11.53;6.80;;;;;;;14.78;89.75;102198.78;5033015;28;20210;-73
2022/06/10 05:52:18;;;;;;;12.43;7.07;;;;;;;14.94;89.37;102196.59;5032380;28;20208;-73
2022/06/10 05:54:45;;;;;;;9.17;6.47;;;;;;;15.12;88.26;102197.00;5015356;28;20269;-74
2022/06/10 05:57:12;;;;;;;10.60;5.73;;;;;;;15.21;87.61;102193.75;5032513;28;20586;-73
2022/06/10 05:59:37;;;;;;;9.47;5.87;;;;;;;15.41;86.94;102193.38;5032795;28;20214;-75
2022/06/10 06:02:06;;;;;;;10.00;5.50;;;;;;;15.52;86.59;102196.22;5032489;28;20690;-76
2022/06/10 06:04:32;;;;;;;8.53;4.60;;;;;;;15.75;85.49;102205.31;5032618;28;20273;-74
2022/06/10 06:06:57;;;;;;;11.17;4.50;;;;;;;15.72;82.95;102206.09;5015357;28;20198;-73
2022/06/10 06:09:23;;;;;;;10.67;4.47;;;;;;;15.78;82.56;102198.47;5032270;28;20202;-76
2022/06/10 06:11:50;;;;;;;10.27;4.03;;;;;;;15.96;81.57;102205.69;5015474;28;20823;-73
2022/06/10 06:14:18;;;;;;;7.57;3.90;;;;;;;16.14;80.58;102208.63;5032518;28;20186;-73
2022/06/10 06:16:50;;;;;;;10.50;4.60;;;;;;;16.20;79.92;102204.47;5033146;28;20180;-72
2022/06/10 06:19:15;;;;;;;8.30;3.87;;;;;;;16.48;79.60;102203.28;5031972;28;20282;-72
2022/06/10 06:21:41;;;;;;;10.80;4.17;;;;;;;16.49;78.18;102202.44;5032371;28;20277;-73
2022/06/10 06:24:06;;;;;;;12.83;3.60;;;;;;;16.75;77.59;102195.97;5032505;28;20182;-74
2022/06/10 06:26:32;;;;;;;8.60;3.43;;;;;;;16.65;76.65;102201.84;5031920;28;20233;-73
2022/06/10 06:28:57;;;;;;;14.03;3.30;;;;;;;16.87;75.53;102196.16;5032472;28;20684;-73
2022/06/10 06:31:23;;;;;;;9.10;2.77;;;;;;;16.87;73.77;102196.16;5031641;28;20228;-73
2022/06/10 06:33:49;;;;;;;9.37;2.97;;;;;;;16.93;73.60;102194.53;5032016;28;20216;-74
2022/06/10 06:36:24;;;;;;;6.67;2.60;;;;;;;17.13;73.83;102192.25;5014001;28;20682;-74
2022/06/10 06:38:50;;;;;;;9.07;2.87;;;;;;;17.26;72.72;102200.19;5032060;28;20205;-74
2022/06/10 06:41:17;;;;;;;9.33;3.03;;;;;;;17.40;73.14;102205.63;5031408;28;20205;-74
2022/06/10 06:43:44;;;;;;;9.00;3.17;;;;;;;17.52;72.65;102208.34;5031961;28;20657;-74
2022/06/10 06:46:13;;;;;;;6.83;3.07;;;;;;;17.71;71.65;102203.44;5031850;28;20225;-74
2022/06/10 06:48:38;;;;;;;6.73;3.00;;;;;;;17.79;71.60;102207.00;5031230;28;20187;-74
2022/06/10 06:51:05;;;;;;;6.33;2.97;;;;;;;17.98;71.27;102203.75;5030415;28;20273;-74
2022/06/10 06:53:32;;;;;;;9.67;2.47;;;;;;;18.03;68.82;102203.78;5011845;28;20546;-74
2022/06/10 06:55:58;;;;;;;8.63;2.50;;;;;;;18.45;67.37;102202.53;5012145;28;20191;-74
2022/06/10 06:58:23;;;;;;;7.37;2.07;;;;;;;18.37;64.32;102206.78;5011622;28;20181;-74
2022/06/10 07:00:49;;;;;;;5.87;2.03;;;;;;;18.26;64.13;102207.50;5011801;28;20203;-73
2022/06/10 07:03:15;;;;;;;5.73;2.33;;;;;;;18.48;62.85;102202.59;5011603;28;20218;-73
2022/06/10 07:05:42;;;;;;;10.13;1.93;;;;;;;18.48;60.63;102209.47;5011418;28;20241;-74
2022/06/10 07:08:09;;;;;;;5.23;1.80;;;;;;;18.75;62.35;102209.72;4994220;28;20754;-74
2022/06/10 07:10:35;;;;;;;4.77;1.70;;;;;;;18.82;61.31;102211.50;5011157;28;20203;-74
2022/06/10 07:13:01;;;;;;;7.07;1.97;;;;;;;18.82;60.41;102216.69;5011588;28;20186;-74
2022/06/10 07:15:27;;;;;;;5.83;1.87;;;;;;;18.87;59.21;102213.28;4993549;28;20195;-74
2022/06/10 07:17:53;;;;;;;7.53;2.17;;;;;;;19.03;60.43;102209.91;5027286;28;20222;-74
2022/06/10 07:20:24;;;;;;;4.83;2.00;;;;;;;19.46;60.54;102208.47;5030924;28;20234;-74
2022/06/10 07:22:50;;;;;;;5.83;1.83;;;;;;;19.24;58.43;102212.69;5013574;28;20208;-75
2022/06/10 07:25:16;;;;;;;6.33;1.70;;;;;;;19.23;57.97;102210.09;5031350;28;20182;-75
2022/06/10 07:27:43;;;;;;;5.90;1.90;;;;;;;19.25;57.24;102211.84;5013469;28;20214;-74
2022/06/10 07:30:09;;;;;;;4.97;1.60;;;;;;;19.39;57.33;102207.59;5013525;28;20707;-75
2022/06/10 07:32:35;;;;;;;5.43;1.80;;;;;;;19.73;57.22;102204.31;5030479;28;20606;-75
2022/06/10 07:35:00;;;;;;;4.60;1.60;;;;;;;19.64;55.86;102205.97;5031594;28;20183;-73
2022/06/10 07:37:26;;;;;;;6.27;1.83;;;;;;;19.73;56.09;102206.03;5012860;28;20704;-75
2022/06/10 07:39:51;;;;;;;5.17;1.90;;;;;;;19.56;54.30;102207.66;5031081;28;20642;-75
2022/06/10 07:42:17;;;;;;;4.30;1.50;;;;;;;19.94;53.46;102209.56;5031162;28;20187;-75
2022/06/10 07:44:43;;;;;;;5.57;1.87;;;;;;;19.90;56.35;102213.00;5030971;28;20618;-75
2022/06/10 07:47:11;;;;;;;3.63;1.60;;;;;;;20.11;54.09;102207.03;5030667;28;20301;-75
2022/06/10 07:49:37;;;;;;;7.10;1.70;;;;;;;20.23;54.86;102212.28;5030271;28;20217;-76
2022/06/10 07:52:04;;;;;;;8.93;1.90;;;;;;;20.29;56.02;102204.47;5030651;28;20244;-75
2022/06/10 07:54:31;;;;;;;7.33;1.80;;;;;;;20.31;52.80;102202.75;5030309;28;20657;-75
2022/06/10 07:56:57;;;;;;;6.20;1.93;;;;;;;20.33;52.38;102204.50;5030739;28;20214;-75
2022/06/10 07:59:22;;;;;;;4.20;1.63;;;;;;;20.48;52.79;102203.63;5030151;28;20240;-75
2022/06/10 08:01:48;;;;;;;10.10;2.07;;;;;;;20.80;53.19;102199.28;5029769;28;20199;-76
2022/06/10 08:04:14;;;;;;;4.33;1.70;;;;;;;21.13;51.49;102194.06;5030561;28;20273;-75
2022/06/10 08:06:43;;;;;;;5.80;1.67;;;;;;;20.80;51.54;102199.28;5029821;28;20260;-75
2022/06/10 08:09:09;;;;;;;6.03;1.40;;;;;;;21.00;51.21;102189.75;5030041;28;20816;-75
2022/06/10 08:11:37;;;;;;;4.47;1.63;;;;;;;21.22;50.80;102188.81;5029695;28;20228;-75
2022/06/10 08:14:03;;;;;;;4.93;1.60;;;;;;;21.44;49.40;102187.91;5030282;28;20644;-75
2022/06/10 08:16:28;;;;;;;7.10;1.90;;;;;;;20.91;50.48;102197.59;5029875;28;20190;-75
2022/06/10 08:18:54;;;;;;;5.73;1.83;;;;;;;21.16;50.28;102194.94;5029948;28;20218;-75
2022/06/10 08:24:05;;;;;;;5.30;1.60;;;;;;;22.18;48.93;102178.88;5030048;28;20782;-76
2022/06/10 08:26:31;;;;;;;6.53;1.40;;;;;;;22.58;48.12;102187.31;5030001;28;20194;-76
2022/06/10 08:28:59;;;;;;;7.07;1.90;;;;;;;22.10;46.58;102196.31;5029550;28;20202;-75
2022/06/10 08:31:24;;;;;;;6.67;1.60;;;;;;;21.91;47.68;102193.81;5029925;28;20616;-75
2022/06/10 08:33:50;;;;;;;6.23;1.70;;;;;;;21.83;49.19;102185.19;5029777;28;20190;-75
2022/06/10 08:36:16;;;;;;;6.20;2.07;;;;;;;21.87;47.70;102181.66;5030220;28;20822;-75
2022/06/10 08:38:44;;;;;;;5.70;1.73;;;;;;;22.14;48.35;102187.59;5011632;28;20202;-75
2022/06/10 08:41:24;;;;;;;5.17;1.70;;;;;;;22.29;46.36;102177.03;5029969;28;20191;-74
2022/06/10 08:44:14;;;;;;;6.90;1.60;;;;;;;22.11;46.05;102177.16;5029838;28;20190;-75
2022/06/10 08:47:16;;;;;;;7.37;1.60;;;;;;;22.56;47.58;102180.34;5012102;28;20225;-75
2022/06/10 08:50:00;;;;;;;5.77;1.80;;;;;;;22.61;46.00;102179.41;5029941;28;20573;-75
2022/06/10 08:52:48;;;;;;;7.33;2.10;;;;;;;22.34;44.78;102174.41;5029288;28;20273;-75
2022/06/10 08:55:51;;;;;;;6.83;1.57;;;;;;;23.18;46.88;102173.66;5028938;28;20186;-75
2022/06/10 08:58:40;;;;;;;5.43;1.50;;;;;;;22.93;45.19;102169.53;5029476;28;20755;-75
2022/06/10 09:01:12;;;;;;;6.20;1.60;;;;;;;23.28;44.98;102166.59;5028219;28;20268;-75
2022/06/10 09:03:44;;;;;;;8.53;1.77;;;;;;;23.94;44.28;102176.25;5029189;28;20187;-75
2022/06/10 09:06:27;;;;;;;7.23;1.90;;;;;;;24.00;43.95;102163.94;5029061;28;20209;-75
2022/06/10 09:08:55;;;;;;;4.57;1.73;;;;;;;24.09;43.17;102162.94;5029193;28;20217;-75
2022/06/10 09:11:30;;;;;;;4.18;1.55;;;;;;;23.11;44.29;102169.34;5028844;28;20190;-75
2022/06/10 09:13:58;;;;;;;7.60;2.17;;;;;;;23.61;44.00;102168.81;5028079;28;20277;-75
2022/06/10 09:16:29;;;;;;;7.07;1.90;;;;;;;24.30;44.70;102166.09;5028563;28;20193;-75
2022/06/10 09:19:19;;;;;;;7.18;1.70;;;;;;;24.17;43.14;102161.91;5026834;28;20202;-75
2022/06/10 09:22:13;;;;;;;4.82;1.75;;;;;;;24.00;43.57;102156.09;5026290;28;20198;-75
2022/06/10 09:24:45;;;;;;;4.95;1.92;;;;;;;24.41;44.13;102150.19;5026896;28;20210;-74
2022/06/10 09:27:10;;;;;;;5.72;2.20;;;;;;;23.66;44.65;102156.53;5029119;28;20988;-75
2022/06/10 09:29:40;;;;;;;4.13;1.63;;;;;;;23.58;44.41;102156.63;5028394;28;20222;-74
2022/06/10 09:32:13;;;;;;;5.53;2.10;;;;;;;23.52;42.61;102154.09;5028582;28;20842;-74
2022/06/10 09:34:50;;;;;;;5.55;2.08;;;;;;;23.94;41.63;102150.06;5028684;28;20204;-74
2022/06/10 09:37:33;;;;;;;4.80;2.10;;;;;;;23.03;43.59;102155.53;5028639;28;20182;-75
2022/06/10 09:40:38;;;;;;;4.77;1.90;;;;;;;22.91;44.76;102152.16;5028854;28;20202;-75
2022/06/10 09:43:29;;;;;;;7.27;1.90;;;;;;;23.37;44.73;102138.59;5028494;28;20192;-75
2022/06/10 09:46:10;;;;;;;6.30;2.00;;;;;;;22.62;46.09;102162.91;5028368;28;20179;-75
2022/06/10 09:49:10;;;;;;;6.07;1.93;;;;;;;22.95;43.54;102151.25;5011192;28;20297;-75
2022/06/10 09:52:27;;;;;;;8.70;2.00;;;;;;;23.52;42.09;102155.84;5028279;28;20264;-75
2022/06/10 09:55:02;;;;;;;4.13;1.50;;;;;;;23.42;42.84;102154.22;4948124;29;20208;-75
2022/06/10 09:57:42;;;;;;;6.77;2.00;;;;;;;23.28;42.77;102151.78;4943312;28;20193;-74
2022/06/10 10:00:11;;;;;;;6.17;2.00;;;;;;;22.27;44.34;102155.31;4996702;28;20280;-75
2022/06/10 10:03:01;;;;;;;5.43;2.27;;;;;;;22.29;44.10;102157.91;5028590;28;20213;-75
2022/06/10 10:05:30;;;;;;;7.43;2.10;;;;;;;23.34;43.21;102148.22;5028538;28;20175;-75
2022/06/10 10:08:16;;;;;;;5.63;2.17;;;;;;;24.12;41.52;102134.94;5010584;28;20297;-75
2022/06/10 10:11:29;;;;;;;5.82;1.95;;;;;;;24.88;40.57;102137.16;5010712;28;20210;-75
2022/06/10 10:13:57;;;;;;;6.07;1.83;;;;;;;24.87;40.53;102135.44;4936442;29;20198;-75
2022/06/10 10:17:01;;;;;;;3.38;1.77;;;;;;;24.58;40.65;102142.94;5017542;28;20217;-75
2022/06/10 10:19:40;;;;;;;8.50;2.83;;;;;;;23.34;41.03;102151.69;5008586;28;20210;-75
2022/06/10 10:22:44;;;;;;;5.40;2.10;;;;;;;23.37;42.55;102146.44;5017036;28;20187;-75
2022/06/10 10:25:22;;;;;;;6.33;2.27;;;;;;;23.07;43.99;102148.50;5029061;28;20296;-75
2022/06/10 10:27:49;;;;;;;5.07;2.20;;;;;;;24.07;42.43;102143.78;5032010;28;20214;-75
2022/06/10 10:30:17;;;;;;;6.13;2.03;;;;;;;23.94;42.98;102139.59;5031537;28;20626;-75
2022/06/10 10:32:47;;;;;;;6.97;2.20;;;;;;;22.96;43.40;102148.63;5031760;28;20194;-75
2022/06/10 10:35:22;;;;;;;6.03;2.30;;;;;;;22.83;42.76;102154.84;5032220;28;20615;-75
2022/06/10 10:37:59;;;;;;;5.90;2.30;;;;;;;22.29;45.05;102156.16;5030884;28;20221;-75
2022/06/10 10:40:34;;;;;;;5.67;2.13;;;;;;;22.17;45.11;102148.44;5032047;28;20743;-75
2022/06/10 10:43:05;;;;;;;5.83;2.20;;;;;;;22.82;44.27;102147.00;5031308;28;20190;-75
2022/06/10 10:45:34;;;;;;;6.03;2.20;;;;;;;23.47;42.75;102136.72;5031881;28;20225;-75
2022/06/10 10:48:12;;;;;;;7.23;2.20;;;;;;;24.27;42.45;102126.84;5031143;28;20226;-75
2022/06/10 10:50:39;;;;;;;5.68;1.85;;;;;;;23.61;41.51;102132.19;5031851;28;20202;-75
2022/06/10 10:53:22;;;;;;;6.22;2.25;;;;;;;23.81;40.97;102130.16;5030668;28;20182;-75
2022/06/10 10:55:54;;;;;;;7.53;2.40;;;;;;;23.41;42.58;102135.06;5031558;28;20531;-75
2022/06/10 10:58:34;;;;;;;4.97;2.00;;;;;;;23.35;43.09;102129.91;5030766;28;20194;-75
2022/06/10 11:01:06;;;;;;;8.07;2.17;;;;;;;24.27;41.88;102118.13;5013751;28;20186;-75
2022/06/10 11:03:37;;;;;;;4.90;1.77;;;;;;;24.38;40.48;102111.81;5015776;28;20187;-75
2022/06/10 11:06:09;;;;;;;4.18;1.58;;;;;;;24.25;40.42;102123.38;5031366;28;20198;-75
2022/06/10 11:08:37;;;;;;;5.82;1.80;;;;;;;24.12;40.72;102126.25;5031378;28;20236;-75
2022/06/10 11:11:26;;;;;;;5.23;1.70;;;;;;;23.83;41.31;102118.78;5030648;28;20201;-75
2022/06/10 11:13:56;;;;;;;9.02;2.30;;;;;;;24.32;40.69;102118.91;5011965;28;20265;-75
2022/06/10 11:16:28;;;;;;;4.78;1.70;;;;;;;24.88;40.14;102103.97;5011457;28;20187;-75
2022/06/10 11:19:08;;;;;;;6.40;2.00;;;;;;;24.82;40.59;102104.06;5029513;28;20207;-75
2022/06/10 11:21:46;;;;;;;5.95;1.88;;;;;;;24.72;40.66;102120.00;5030393;28;20221;-75
2022/06/10 11:24:16;;;;;;;4.53;1.92;;;;;;;24.53;40.02;102115.91;5031377;28;20167;-75
2022/06/10 11:26:53;;;;;;;3.90;1.90;;;;;;;25.00;40.91;102111.56;5030586;28;20211;-75
2022/06/10 11:29:19;;;;;;;6.60;2.15;;;;;;;25.09;39.35;102108.75;5012950;28;20206;-75
2022/06/10 11:31:57;;;;;;;3.97;1.83;;;;;;;24.76;40.47;102104.19;5030581;28;20191;-75
2022/06/10 11:34:39;;;;;;;5.50;2.30;;;;;;;23.94;40.70;102111.66;5030857;28;20181;-75
2022/06/10 11:37:27;;;;;;;5.17;1.90;;;;;;;24.05;41.50;102116.75;5029513;28;20261;-75
2022/06/10 11:40:01;;;;;;;6.77;1.90;;;;;;;23.82;41.38;102106.59;5030927;28;20268;-74
2022/06/10 11:42:32;;;;;;;4.90;2.03;;;;;;;23.82;42.71;102118.78;5030422;28;20194;-74
2022/06/10 11:45:10;;;;;;;5.90;2.00;;;;;;;23.44;42.06;102119.31;5030564;28;20196;-74
2022/06/10 11:47:43;;;;;;;5.07;1.63;;;;;;;23.76;41.48;102109.28;5030394;28;20187;-75
2022/06/10 11:50:19;;;;;;;5.57;2.00;;;;;;;23.22;41.47;102111.75;5029999;28;20217;-75
2022/06/10 11:53:20;;;;;;;3.70;1.70;;;;;;;23.86;41.88;102107.41;5030443;28;20201;-75
2022/06/10 11:59:42;;;;;;;5.27;2.17;;;;;;;24.37;40.83;102101.38;5016512;28;20225;-74
2022/06/10 12:01:26;;;;;;;4.95;1.80;;;;;;;24.13;40.71;102104.41;5017496;28;20187;-75
2022/06/10 12:04:03;;;;;;;3.38;1.70;;;;;;;24.72;41.00;102097.25;5030388;28;20193;-75
2022/06/10 12:06:36;;;;;;;4.60;1.98;;;;;;;24.71;40.56;102095.53;5030376;28;20174;-74